Time;durP1;ratioP1;P1;durP2;ratioP2;P2;SDS_P1;SDS_P2;PMS_P1;PMS_P2;Temp;Humidity;BMP_temperature;BMP_pressure;BME280_temperature;BME280_humidity;BME280_pressure;Samples;Min_cycle;Max_cycle;Signal;HPM_P1;HPM_P2
2022/08/22 00:02:03;;;;;;;0.40;0.20;;;18.20;99.90;;;;;;5091843;28;20394;-75
2022/08/22 00:04:40;;;;;;;0.50;0.40;;;18.10;99.90;;;;;;5092950;28;21000;-74
2022/08/22 00:07:26;;;;;;;0.40;0.30;;;18.30;99.90;;;;;;5091823;28;20490;-74
2022/08/22 00:10:00;;;;;;;0.40;0.30;;;18.20;99.90;;;;;;5092847;28;20763;-74
2022/08/22 00:12:57;;;;;;;0.50;0.50;;;18.20;99.90;;;;;;5092779;28;20906;-75
2022/08/22 00:15:36;;;;;;;0.40;0.30;;;18.10;99.90;;;;;;5092941;28;20463;-74
2022/08/22 00:18:35;;;;;;;0.40;0.30;;;18.10;99.90;;;;;;5093002;28;20370;-74
2022/08/22 00:21:12;;;;;;;0.40;0.30;;;18.10;99.90;;;;;;5092599;28;20386;-77
2022/08/22 00:23:41;;;;;;;0.40;0.30;;;18.10;99.90;;;;;;5091243;28;20884;-75
2022/08/22 00:26:23;;;;;;;0.70;0.60;;;18.10;99.90;;;;;;5092745;28;20413;-75
2022/08/22 00:28:57;;;;;;;1.20;0.80;;;18.00;99.90;;;;;;5092810;28;20382;-74
2022/08/22 00:31:41;;;;;;;0.40;0.20;;;18.10;99.90;;;;;;5092543;28;20397;-74
2022/08/22 00:34:36;;;;;;;0.40;0.30;;;18.00;99.90;;;;;;5091003;28;20482;-74
2022/08/22 00:37:25;;;;;;;0.40;0.30;;;18.00;99.90;;;;;;5092587;28;20370;-74
2022/08/22 00:40:08;;;;;;;0.40;0.20;;;18.00;99.90;;;;;;5092253;28;20382;-74
2022/08/22 00:42:55;;;;;;;0.40;0.30;;;17.90;99.90;;;;;;5090773;28;20404;-75
2022/08/22 00:45:43;;;;;;;0.40;0.30;;;17.80;99.90;;;;;;5092375;28;20395;-74
2022/08/22 00:48:27;;;;;;;0.40;0.20;;;17.80;99.90;;;;;;5092244;28;20382;-74
2022/08/22 00:51:08;;;;;;;0.40;0.20;;;17.80;99.90;;;;;;5092800;28;20398;-74
2022/08/22 00:53:57;;;;;;;0.40;0.20;;;17.80;99.90;;;;;;5091325;28;20378;-74
2022/08/22 00:56:49;;;;;;;0.40;0.20;;;17.80;99.90;;;;;;5092094;28;20487;-74
2022/08/22 00:59:34;;;;;;;0.80;0.50;;;17.70;99.90;;;;;;5092129;28;20444;-74
2022/08/22 01:02:20;;;;;;;0.40;0.30;;;17.70;99.90;;;;;;5092079;28;20389;-74
2022/08/22 01:04:49;;;;;;;0.40;0.30;;;17.70;99.90;;;;;;5091633;28;20373;-74
2022/08/22 01:07:41;;;;;;;0.40;0.30;;;17.70;99.90;;;;;;5091943;28;20439;-74
2022/08/22 01:10:21;;;;;;;0.80;0.80;;;17.80;99.90;;;;;;5091633;28;20394;-74
2022/08/22 01:13:04;;;;;;;0.40;0.30;;;17.70;99.90;;;;;;5091488;28;20405;-74
2022/08/22 01:15:32;;;;;;;0.40;0.20;;;17.60;99.90;;;;;;5091741;28;20404;-74
2022/08/22 01:18:13;;;;;;;0.40;0.20;;;17.50;99.90;;;;;;5091722;28;20744;-75
2022/08/22 01:21:27;;;;;;;0.40;0.20;;;17.40;99.90;;;;;;5090282;28;20418;-74
2022/08/22 01:24:11;;;;;;;0.40;0.40;;;17.40;99.90;;;;;;5073368;28;20385;-74
2022/08/22 01:27:09;;;;;;;0.40;0.30;;;17.50;99.90;;;;;;5091514;28;20406;-75
2022/08/22 01:29:53;;;;;;;0.40;0.40;;;17.50;99.90;;;;;;5090096;28;20421;-74
2022/08/22 01:32:57;;;;;;;0.40;0.30;;;17.50;99.90;;;;;;5090075;28;20877;-74
2022/08/22 01:35:45;;;;;;;0.40;0.20;;;17.40;99.90;;;;;;5091878;28;20386;-74
2022/08/22 01:38:41;;;;;;;0.40;0.20;;;17.30;99.90;;;;;;5091312;28;20371;-74
2022/08/22 01:41:41;;;;;;;0.60;0.60;;;17.20;99.90;;;;;;5089888;28;20465;-74
2022/08/22 01:44:26;;;;;;;0.40;0.30;;;17.20;99.90;;;;;;5089392;28;20382;-74
2022/08/22 01:47:15;;;;;;;0.40;0.20;;;17.20;99.90;;;;;;5091243;28;20388;-74
2022/08/22 01:49:49;;;;;;;0.40;0.20;;;17.20;99.90;;;;;;5091214;28;20731;-74
2022/08/22 01:52:31;;;;;;;0.40;0.20;;;17.20;99.90;;;;;;5090888;28;20410;-73
2022/08/22 01:55:20;;;;;;;0.80;0.70;;;17.10;99.90;;;;;;5089680;28;20382;-74
2022/08/22 01:57:55;;;;;;;0.40;0.20;;;16.90;99.90;;;;;;5076091;28;20789;-74
2022/08/22 02:00:22;;;;;;;0.40;0.30;;;16.90;99.90;;;;;;5090792;28;20386;-73
2022/08/22 02:03:15;;;;;;;0.40;0.20;;;16.80;99.90;;;;;;5090517;28;20406;-74
2022/08/22 02:06:01;;;;;;;0.40;0.20;;;16.80;99.90;;;;;;5089977;28;20388;-74
2022/08/22 02:08:49;;;;;;;0.40;0.30;;;16.80;99.90;;;;;;5090768;28;20378;-74
2022/08/22 02:11:39;;;;;;;0.40;0.30;;;16.80;99.90;;;;;;5098807;22;20897;-74
2022/08/22 02:14:24;;;;;;;0.40;0.30;;;16.90;99.90;;;;;;5070095;28;20372;-74
2022/08/22 02:17:19;;;;;;;0.40;0.30;;;16.80;99.90;;;;;;5070385;28;20418;-74
2022/08/22 02:20:02;;;;;;;0.40;0.30;;;16.90;99.90;;;;;;5059357;28;20391;-75
2022/08/22 02:22:41;;;;;;;0.40;0.20;;;17.00;99.90;;;;;;5049775;28;20385;-74
2022/08/22 02:25:18;;;;;;;0.40;0.30;;;16.80;99.90;;;;;;5050355;28;20775;-75
2022/08/22 02:28:08;;;;;;;0.40;0.20;;;16.90;99.90;;;;;;5050209;28;20724;-74
2022/08/22 02:30:53;;;;;;;0.40;0.28;;;16.80;99.90;;;;;;5032204;28;20887;-74
2022/08/22 02:33:32;;;;;;;0.40;0.30;;;16.80;99.90;;;;;;5049875;28;20393;-75
2022/08/22 02:36:05;;;;;;;0.40;0.30;;;16.70;99.90;;;;;;5050085;28;20412;-74
2022/08/22 02:38:39;;;;;;;0.40;0.20;;;16.70;99.90;;;;;;5050111;28;20878;-75
2022/08/22 02:41:42;;;;;;;0.40;0.30;;;16.80;99.90;;;;;;5050000;28;20400;-75
2022/08/22 02:44:19;;;;;;;0.40;0.30;;;16.80;99.90;;;;;;5049680;28;20391;-73
2022/08/22 02:47:21;;;;;;;0.40;0.30;;;16.70;99.90;;;;;;5050054;28;20389;-74
2022/08/22 02:50:04;;;;;;;0.40;0.30;;;16.70;99.90;;;;;;5039926;28;20389;-74
2022/08/22 02:52:41;;;;;;;0.40;0.20;;;16.70;99.90;;;;;;5049628;28;20393;-75
2022/08/22 02:55:27;;;;;;;0.40;0.30;;;16.60;99.90;;;;;;5049965;28;20867;-75
2022/08/22 02:58:03;;;;;;;0.40;0.40;;;16.50;99.90;;;;;;5049898;28;20473;-73
2022/08/22 03:00:43;;;;;;;0.80;0.70;;;16.40;99.90;;;;;;5049806;28;20939;-74
2022/08/22 03:03:20;;;;;;;0.40;0.20;;;16.30;99.90;;;;;;5049581;28;20385;-74
2022/08/22 03:05:58;;;;;;;0.70;0.60;;;16.30;99.90;;;;;;5049807;28;20391;-74
2022/08/22 03:08:26;;;;;;;0.40;0.20;;;16.30;99.90;;;;;;5049769;28;20952;-75
2022/08/22 03:11:06;;;;;;;0.43;0.25;;;16.40;99.90;;;;;;5049439;28;20417;-74
2022/08/22 03:13:55;;;;;;;0.40;0.20;;;16.30;99.90;;;;;;5049522;28;20804;-74
2022/08/22 03:16:30;;;;;;;0.40;0.30;;;16.20;99.90;;;;;;5051491;28;20827;-74
2022/08/22 03:19:01;;;;;;;0.40;0.30;;;16.30;99.90;;;;;;5036171;28;20819;-75
2022/08/22 03:21:43;;;;;;;0.40;0.20;;;16.30;99.90;;;;;;5053327;28;20404;-74
2022/08/22 03:24:12;;;;;;;0.50;0.50;;;16.30;99.90;;;;;;5053467;28;20842;-73
2022/08/22 03:26:49;;;;;;;0.40;0.20;;;16.20;99.90;;;;;;5053698;28;20474;-73
2022/08/22 03:29:22;;;;;;;0.40;0.25;;;16.10;99.90;;;;;;5053555;28;20854;-74
2022/08/22 03:32:14;;;;;;;0.40;0.20;;;16.10;99.90;;;;;;5053617;28;20479;-74
2022/08/22 03:35:00;;;;;;;0.40;0.30;;;16.10;99.90;;;;;;5053427;28;20374;-73
2022/08/22 03:37:36;;;;;;;0.40;0.20;;;16.10;99.90;;;;;;5053793;28;20867;-73
2022/08/22 03:40:06;;;;;;;0.40;0.20;;;16.10;99.90;;;;;;5035577;28;20389;-74
2022/08/22 03:42:58;;;;;;;0.40;0.20;;;16.20;99.90;;;;;;5053653;28;20393;-74
2022/08/22 03:45:52;;;;;;;0.40;0.20;;;16.10;99.90;;;;;;5053661;28;20736;-74
2022/08/22 03:48:48;;;;;;;0.40;0.30;;;16.00;99.90;;;;;;5038546;28;20894;-74
2022/08/22 03:51:46;;;;;;;0.40;0.30;;;15.90;99.90;;;;;;5053214;28;20432;-74
2022/08/22 03:54:26;;;;;;;0.40;0.20;;;16.00;99.90;;;;;;5053142;28;20382;-74
2022/08/22 03:57:16;;;;;;;0.40;0.20;;;15.90;99.90;;;;;;5053397;28;20430;-74
2022/08/22 03:59:58;;;;;;;0.40;0.20;;;15.90;99.90;;;;;;5035463;28;20395;-74
2022/08/22 04:03:03;;;;;;;0.40;0.20;;;15.90;99.90;;;;;;5053203;28;20389;-73
2022/08/22 04:05:53;;;;;;;0.40;0.20;;;15.90;99.90;;;;;;5053726;28;20381;-75
2022/08/22 04:08:40;;;;;;;0.80;0.60;;;16.10;99.90;;;;;;5053212;28;20729;-73
2022/08/22 04:11:12;;;;;;;0.40;0.30;;;16.00;99.90;;;;;;5052743;28;20562;-75
2022/08/22 04:14:12;;;;;;;0.90;0.90;;;16.10;99.90;;;;;;5052870;28;20374;-74
2022/08/22 04:17:07;;;;;;;0.40;0.20;;;16.00;99.90;;;;;;5053129;28;20373;-75
2022/08/22 04:20:19;;;;;;;0.40;0.20;;;16.10;99.90;;;;;;5052865;28;21085;-74
2022/08/22 04:23:12;;;;;;;0.40;0.25;;;16.10;99.90;;;;;;5052378;28;20404;-74
2022/08/22 04:25:49;;;;;;;0.40;0.20;;;15.90;99.90;;;;;;5035033;28;20764;-74
2022/08/22 04:28:28;;;;;;;0.40;0.28;;;15.80;99.90;;;;;;5051905;28;20398;-74
2022/08/22 04:31:07;;;;;;;0.40;0.30;;;15.90;99.90;;;;;;5052633;28;20393;-75
2022/08/22 04:33:51;;;;;;;0.40;0.30;;;16.00;99.90;;;;;;5052275;28;20401;-73
2022/08/22 04:36:25;;;;;;;0.40;0.20;;;16.00;99.90;;;;;;5034788;28;20530;-74
2022/08/22 04:39:09;;;;;;;0.40;0.20;;;16.00;99.90;;;;;;5052666;28;20386;-73
2022/08/22 04:41:50;;;;;;;0.40;0.30;;;16.00;99.90;;;;;;5052575;28;20438;-74
2022/08/22 04:44:22;;;;;;;0.40;0.20;;;15.80;99.90;;;;;;5052311;28;20913;-74
2022/08/22 04:47:01;;;;;;;0.40;0.30;;;15.80;99.90;;;;;;5052556;28;20385;-73
2022/08/22 04:49:37;;;;;;;0.40;0.30;;;15.70;99.90;;;;;;5052485;28;20732;-74
2022/08/22 04:52:48;;;;;;;0.40;0.30;;;15.70;99.90;;;;;;5052358;28;20435;-74
2022/08/22 04:55:45;;;;;;;0.40;0.20;;;15.80;99.90;;;;;;5052708;28;20435;-74
2022/08/22 04:58:25;;;;;;;0.40;0.20;;;15.80;99.90;;;;;;5054223;28;20381;-74
2022/08/22 05:01:24;;;;;;;0.40;0.20;;;15.80;99.90;;;;;;5053885;28;20381;-74
2022/08/22 05:04:07;;;;;;;0.40;0.30;;;15.70;99.90;;;;;;5052036;28;20389;-74
2022/08/22 05:06:39;;;;;;;0.43;0.32;;;15.80;99.90;;;;;;5052246;28;20374;-74
2022/08/22 05:09:13;;;;;;;0.40;0.27;;;15.70;99.90;;;;;;5052159;28;20473;-74
2022/08/22 05:11:40;;;;;;;0.40;0.20;;;15.60;99.90;;;;;;5033992;28;20775;-74
2022/08/22 05:14:28;;;;;;;0.40;0.20;;;15.70;99.90;;;;;;5051677;28;20518;-73
2022/08/22 05:16:56;;;;;;;0.40;0.20;;;15.70;99.90;;;;;;5051891;28;20369;-73
2022/08/22 05:19:29;;;;;;;0.40;0.30;;;15.60;99.90;;;;;;5051776;28;20381;-74
2022/08/22 05:21:55;;;;;;;0.90;0.90;;;15.60;99.90;;;;;;5051533;28;20398;-74
2022/08/22 05:24:27;;;;;;;0.40;0.20;;;15.60;99.90;;;;;;5051520;28;20404;-74
2022/08/22 05:26:56;;;;;;;0.40;0.30;;;15.60;99.90;;;;;;5051766;28;20382;-75
2022/08/22 05:29:27;;;;;;;0.40;0.30;;;15.70;99.90;;;;;;5051567;28;20762;-74
2022/08/22 05:32:02;;;;;;;0.40;0.30;;;15.60;99.90;;;;;;5051501;28;20404;-74
2022/08/22 05:34:35;;;;;;;0.40;0.30;;;15.60;99.90;;;;;;5033382;28;20381;-74
2022/08/22 05:37:18;;;;;;;0.40;0.20;;;15.70;99.90;;;;;;5051559;28;20385;-74
2022/08/22 05:39:46;;;;;;;0.40;0.20;;;15.80;99.90;;;;;;5051406;28;20460;-75
2022/08/22 05:42:26;;;;;;;0.40;0.30;;;16.00;99.90;;;;;;5051327;28;20404;-75
2022/08/22 05:44:54;;;;;;;0.40;0.22;;;16.00;99.90;;;;;;5033358;28;20385;-75
2022/08/22 05:47:25;;;;;;;0.40;0.20;;;16.10;99.90;;;;;;5051274;28;20424;-75
2022/08/22 05:50:07;;;;;;;0.40;0.20;;;16.20;99.90;;;;;;5051222;28;20792;-74
2022/08/22 05:52:54;;;;;;;0.40;0.20;;;16.20;99.90;;;;;;5050849;28;20903;-74
2022/08/22 05:55:44;;;;;;;0.40;0.20;;;16.10;99.90;;;;;;5051213;28;20413;-74
2022/08/22 05:58:15;;;;;;;0.40;0.30;;;16.20;99.90;;;;;;5051152;28;20874;-75
2022/08/22 06:00:44;;;;;;;0.40;0.20;;;16.20;99.90;;;;;;5032994;28;20884;-74
2022/08/22 06:03:26;;;;;;;0.40;0.20;;;16.40;99.90;;;;;;5050704;28;20435;-75
2022/08/22 06:05:55;;;;;;;0.50;0.50;;;16.40;99.90;;;;;;5050968;28;20381;-74
2022/08/22 06:08:42;;;;;;;0.40;0.20;;;16.50;99.90;;;;;;5050963;28;20472;-75
2022/08/22 06:11:17;;;;;;;0.40;0.30;;;16.60;99.90;;;;;;5050602;28;20419;-74
2022/08/22 06:13:56;;;;;;;0.60;0.40;;;16.70;99.90;;;;;;5032783;28;20381;-75
2022/08/22 06:16:34;;;;;;;0.40;0.20;;;16.70;99.90;;;;;;5050878;28;20812;-74
2022/08/22 06:19:02;;;;;;;0.40;0.20;;;16.80;99.90;;;;;;5032941;28;20385;-75
2022/08/22 06:21:37;;;;;;;0.40;0.30;;;16.90;99.90;;;;;;5050410;28;20464;-75
2022/08/22 06:24:12;;;;;;;0.40;0.30;;;16.90;99.90;;;;;;5050371;28;20897;-74
2022/08/22 06:26:42;;;;;;;0.40;0.30;;;17.10;99.90;;;;;;5032577;28;20393;-75
2022/08/22 06:29:13;;;;;;;0.50;0.40;;;17.20;99.90;;;;;;5033224;28;20385;-75
2022/08/22 06:31:45;;;;;;;0.40;0.30;;;17.40;99.90;;;;;;5050500;28;20895;-75
2022/08/22 06:34:31;;;;;;;0.40;0.30;;;17.50;99.90;;;;;;5050419;28;20447;-75
2022/08/22 06:37:03;;;;;;;0.40;0.20;;;17.50;99.90;;;;;;5032797;28;20386;-74
2022/08/22 06:39:32;;;;;;;0.50;0.50;;;17.70;99.90;;;;;;5050600;28;20460;-74
2022/08/22 06:42:18;;;;;;;0.40;0.30;;;17.80;99.90;;;;;;5032496;28;20393;-74
2022/08/22 06:44:50;;;;;;;0.40;0.30;;;17.90;99.90;;;;;;5049564;28;20451;-74
2022/08/22 06:47:22;;;;;;;0.40;0.30;;;17.90;99.90;;;;;;5032546;28;21070;-75
2022/08/22 06:49:54;;;;;;;0.40;0.28;;;17.90;99.90;;;;;;5050416;28;20780;-74
2022/08/22 06:52:22;;;;;;;0.40;0.20;;;17.90;99.90;;;;;;5049774;28;20402;-75
2022/08/22 06:54:59;;;;;;;0.40;0.20;;;17.90;99.90;;;;;;5050122;28;20863;-75
2022/08/22 06:57:37;;;;;;;0.40;0.20;;;17.90;99.90;;;;;;5050310;28;20393;-74
2022/08/22 07:00:08;;;;;;;0.40;0.30;;;18.00;99.90;;;;;;5050201;28;20423;-74
2022/08/22 07:02:39;;;;;;;0.70;0.70;;;18.10;99.90;;;;;;5032057;28;20413;-75
2022/08/22 07:05:12;;;;;;;0.40;0.30;;;18.20;99.90;;;;;;5032305;28;20472;-75
2022/08/22 07:07:37;;;;;;;0.40;0.30;;;18.30;99.90;;;;;;5050255;28;20423;-75
2022/08/22 07:10:04;;;;;;;0.40;0.30;;;18.50;99.90;;;;;;5050001;28;20419;-74
2022/08/22 07:12:35;;;;;;;0.40;0.30;;;18.70;99.90;;;;;;5049894;28;20748;-74
2022/08/22 07:15:18;;;;;;;0.40;0.30;;;18.80;99.90;;;;;;5032279;28;20400;-75
2022/08/22 07:17:51;;;;;;;0.40;0.20;;;19.10;99.90;;;;;;5050254;28;20420;-74
2022/08/22 07:20:26;;;;;;;0.40;0.30;;;19.20;99.90;;;;;;5050005;28;20389;-75
2022/08/22 07:23:04;;;;;;;0.40;0.30;;;19.40;99.90;;;;;;5049290;28;20798;-74
2022/08/22 07:25:33;;;;;;;0.40;0.20;;;19.50;99.90;;;;;;5050069;28;20887;-75
2022/08/22 07:28:07;;;;;;;0.40;0.20;;;19.80;99.90;;;;;;5050069;28;20414;-74
2022/08/22 07:30:58;;;;;;;1.00;1.00;;;20.00;99.90;;;;;;5050599;28;20382;-75
2022/08/22 07:33:54;;;;;;;0.40;0.22;;;20.30;99.90;;;;;;5049628;28;20504;-73
2022/08/22 07:36:27;;;;;;;0.40;0.25;;;20.40;99.90;;;;;;5049933;28;20944;-74
2022/08/22 07:39:14;;;;;;;0.40;0.20;;;20.40;99.90;;;;;;5049935;28;20389;-74
2022/08/22 07:41:45;;;;;;;0.40;0.40;;;20.40;99.90;;;;;;5049839;28;20428;-73
2022/08/22 07:44:19;;;;;;;0.40;0.20;;;20.40;99.90;;;;;;5049412;28;20874;-75
2022/08/22 07:46:59;;;;;;;0.40;0.20;;;20.40;99.90;;;;;;5049858;28;20473;-74
2022/08/22 07:49:31;;;;;;;0.40;0.30;;;20.40;99.90;;;;;;5031994;28;20377;-74
2022/08/22 07:52:09;;;;;;;0.40;0.20;;;20.40;99.90;;;;;;5049644;28;20401;-74
2022/08/22 07:54:34;;;;;;;0.40;0.30;;;20.40;99.90;;;;;;5049461;28;20405;-73
2022/08/22 07:57:08;;;;;;;0.40;0.20;;;20.50;99.90;;;;;;5049782;28;20875;-73
2022/08/22 07:59:41;;;;;;;0.40;0.40;;;20.60;99.90;;;;;;5049676;28;20381;-75
2022/08/22 08:02:11;;;;;;;0.40;0.20;;;20.60;99.90;;;;;;5049969;28;20743;-73
2022/08/22 08:04:38;;;;;;;0.47;0.43;;;20.70;99.90;;;;;;5052875;28;20939;-73
2022/08/22 08:07:07;;;;;;;0.40;0.20;;;20.70;99.90;;;;;;5053225;28;20392;-75
2022/08/22 08:09:37;;;;;;;0.40;0.22;;;20.70;99.90;;;;;;5053205;28;20484;-74
2022/08/22 08:12:05;;;;;;;1.80;0.70;;;20.80;99.90;;;;;;5099624;23;20469;-73
2022/08/22 08:14:35;;;;;;;0.68;0.65;;;20.90;99.90;;;;;;5093166;28;20378;-73
2022/08/22 08:17:26;;;;;;;0.40;0.20;;;21.00;99.90;;;;;;5093388;28;20366;-73
2022/08/22 08:19:53;;;;;;;0.40;0.20;;;21.00;99.90;;;;;;5093253;28;20817;-73
2022/08/22 08:22:23;;;;;;;0.40;0.20;;;21.20;99.90;;;;;;5092634;28;20923;-74
2022/08/22 08:24:50;;;;;;;0.60;0.60;;;21.20;99.90;;;;;;5093149;28;20386;-74
2022/08/22 08:30:26;;;;;;;0.40;0.30;;;21.10;99.90;;;;;;5093777;28;20427;-74
2022/08/22 08:32:56;;;;;;;0.40;0.20;;;21.20;99.90;;;;;;5092724;28;20876;-73
2022/08/22 08:35:25;;;;;;;0.40;0.33;;;21.10;99.90;;;;;;5093064;28;20954;-74
2022/08/22 08:38:10;;;;;;;0.40;0.20;;;21.20;99.90;;;;;;5091630;28;20465;-73
2022/08/22 08:40:51;;;;;;;0.40;0.20;;;21.10;99.90;;;;;;5092921;28;20389;-74
2022/08/22 08:43:38;;;;;;;0.40;0.20;;;21.20;99.90;;;;;;5092680;28;20941;-73
2022/08/22 08:46:19;;;;;;;0.40;0.20;;;21.30;99.90;;;;;;5093148;28;20410;-74
2022/08/22 08:48:47;;;;;;;0.40;0.30;;;21.40;99.90;;;;;;5095047;28;20855;-73
2022/08/22 08:51:25;;;;;;;0.47;0.45;;;21.50;99.90;;;;;;5095217;28;20390;-73
2022/08/22 08:54:14;;;;;;;0.40;0.20;;;21.50;99.90;;;;;;5095223;28;20402;-74
2022/08/22 08:57:07;;;;;;;0.40;0.28;;;21.60;99.90;;;;;;5093961;28;20397;-74
2022/08/22 08:59:43;;;;;;;0.40;0.20;;;21.60;99.90;;;;;;5094780;28;20516;-73
2022/08/22 09:02:28;;;;;;;0.40;0.30;;;21.60;99.90;;;;;;5093324;28;20386;-73
2022/08/22 09:05:14;;;;;;;0.40;0.30;;;21.70;99.90;;;;;;5094602;28;20428;-73
2022/08/22 09:08:11;;;;;;;0.40;0.20;;;21.80;99.90;;;;;;5094848;28;20755;-74
2022/08/22 09:11:04;;;;;;;0.40;0.20;;;21.80;99.90;;;;;;5094518;28;20419;-74
2022/08/22 09:13:57;;;;;;;0.40;0.20;;;21.80;99.90;;;;;;5093869;28;20382;-73
2022/08/22 09:16:35;;;;;;;0.40;0.30;;;21.90;99.90;;;;;;5093224;28;20800;-74
2022/08/22 09:19:19;;;;;;;0.40;0.20;;;22.10;99.90;;;;;;5095180;28;20374;-73
2022/08/22 09:22:04;;;;;;;0.40;0.20;;;22.00;99.90;;;;;;5094069;28;20381;-74
2022/08/22 09:24:54;;;;;;;0.40;0.20;;;22.20;99.90;;;;;;5094137;28;20431;-74
2022/08/22 09:27:41;;;;;;;0.40;0.30;;;22.20;99.90;;;;;;5094539;28;20390;-74
2022/08/22 09:30:11;;;;;;;0.40;0.20;;;22.30;99.90;;;;;;5092932;28;20392;-74
2022/08/22 09:32:53;;;;;;;0.40;0.30;;;22.50;99.90;;;;;;5092447;28;20535;-73
2022/08/22 09:35:39;;;;;;;0.40;0.30;;;22.50;99.90;;;;;;5093956;28;20413;-74
2022/08/22 09:38:29;;;;;;;0.40;0.20;;;22.60;99.90;;;;;;5094143;28;20394;-72
2022/08/22 09:41:37;;;;;;;0.40;0.40;;;22.80;99.90;;;;;;5093920;28;20454;-73
2022/08/22 09:44:08;;;;;;;0.40;0.20;;;22.80;99.90;;;;;;5053622;28;20382;-74
2022/08/22 09:46:51;;;;;;;0.40;0.20;;;22.90;98.00;;;;;;5092273;28;20381;-73
2022/08/22 09:49:43;;;;;;;0.40;0.30;;;23.10;98.60;;;;;;5091708;28;20382;-73
2022/08/22 09:52:56;;;;;;;0.40;0.30;;;23.10;97.10;;;;;;5091461;28;20405;-72
2022/08/22 09:55:54;;;;;;;0.40;0.20;;;23.10;97.20;;;;;;5091690;28;20461;-73
2022/08/22 09:58:48;;;;;;;0.40;0.20;;;23.30;95.30;;;;;;5091579;28;20458;-73
2022/08/22 10:01:49;;;;;;;0.40;0.30;;;23.40;93.40;;;;;;5091385;28;20416;-72
2022/08/22 10:04:43;;;;;;;0.40;0.20;;;23.50;91.20;;;;;;5089906;28;20734;-73
2022/08/22 10:07:31;;;;;;;0.40;0.20;;;23.60;79.40;;;;;;5091270;28;20462;-72
2022/08/22 10:10:24;;;;;;;0.40;0.30;;;23.60;80.70;;;;;;5091219;28;20395;-73
2022/08/22 10:13:16;;;;;;;0.40;0.20;;;23.60;89.00;;;;;;5090737;28;20405;-73
2022/08/22 10:16:11;;;;;;;0.40;0.30;;;23.60;86.40;;;;;;5091222;28;20431;-72
2022/08/22 10:18:49;;;;;;;0.40;0.30;;;23.80;86.90;;;;;;5091165;28;20457;-73
2022/08/22 10:21:56;;;;;;;0.40;0.30;;;24.00;88.70;;;;;;5090488;28;20835;-73
2022/08/22 10:25:00;;;;;;;0.40;0.25;;;23.80;90.30;;;;;;5089507;28;20923;-73
2022/08/22 10:27:32;;;;;;;0.40;0.30;;;23.90;90.60;;;;;;5086609;28;20447;-73
2022/08/22 10:30:15;;;;;;;0.50;0.30;;;24.10;90.30;;;;;;5090979;28;20389;-73
2022/08/22 10:32:48;;;;;;;0.40;0.20;;;24.30;89.50;;;;;;5090617;28;20977;-73
2022/08/22 10:35:33;;;;;;;0.40;0.28;;;24.20;87.30;;;;;;5090854;28;20382;-73
2022/08/22 10:38:14;;;;;;;0.40;0.20;;;24.20;88.60;;;;;;5091025;28;20375;-73
2022/08/22 10:41:00;;;;;;;0.40;0.20;;;24.30;87.80;;;;;;5090873;28;20808;-73
2022/08/22 10:43:48;;;;;;;0.40;0.20;;;24.40;88.40;;;;;;5090677;28;20370;-73
2022/08/22 10:46:30;;;;;;;0.40;0.20;;;24.50;88.40;;;;;;5091214;28;20370;-73
2022/08/22 10:49:02;;;;;;;0.40;0.20;;;24.50;87.50;;;;;;5091233;28;20375;-73
2022/08/22 10:52:05;;;;;;;0.40;0.30;;;24.40;87.50;;;;;;5090642;28;20390;-73
2022/08/22 10:54:56;;;;;;;0.40;0.30;;;24.60;85.80;;;;;;5090438;28;20516;-74
2022/08/22 10:57:35;;;;;;;0.40;0.20;;;24.70;85.20;;;;;;5090802;28;20424;-73
2022/08/22 11:00:40;;;;;;;0.80;0.80;;;24.60;86.20;;;;;;5090796;28;20867;-73
2022/08/22 11:03:26;;;;;;;0.40;0.20;;;24.70;87.30;;;;;;5059596;28;20390;-73
2022/08/22 11:06:08;;;;;;;0.40;0.30;;;25.00;86.90;;;;;;5076243;28;20382;-73
2022/08/22 11:09:38;;;;;;;0.40;0.20;;;24.90;83.50;;;;;;5090606;28;20386;-72
2022/08/22 11:12:20;;;;;;;0.40;0.30;;;25.30;83.50;;;;;;5019693;28;20417;-73
2022/08/22 11:15:19;;;;;;;0.90;0.70;;;25.40;81.90;;;;;;5090184;28;20412;-72
2022/08/22 11:18:32;;;;;;;0.40;0.30;;;25.40;84.90;;;;;;5089241;28;20373;-72
2022/08/22 11:21:14;;;;;;;0.40;0.20;;;25.60;80.00;;;;;;5044791;28;20967;-72
2022/08/22 11:23:50;;;;;;;0.40;0.30;;;25.60;80.80;;;;;;5090026;28;20454;-72
2022/08/22 11:26:39;;;;;;;0.40;0.20;;;25.90;78.60;;;;;;5090318;28;20439;-73
2022/08/22 11:29:14;;;;;;;0.40;0.30;;;26.00;76.10;;;;;;5090411;28;20499;-74
2022/08/22 11:31:48;;;;;;;0.40;0.20;;;25.90;75.60;;;;;;5090016;28;20406;-72
2022/08/22 11:34:42;;;;;;;0.40;0.20;;;26.20;76.90;;;;;;5089954;28;20370;-72
2022/08/22 11:37:32;;;;;;;0.40;0.20;;;26.50;76.00;;;;;;5091397;28;20377;-73
2022/08/22 11:40:25;;;;;;;0.40;0.20;;;27.10;74.50;;;;;;5093992;28;20482;-73
2022/08/22 11:43:28;;;;;;;0.40;0.30;;;28.00;70.80;;;;;;5062340;28;20382;-72
2022/08/22 11:45:58;;;;;;;0.40;0.30;;;28.60;63.80;;;;;;5093623;28;20736;-73
2022/08/22 11:49:01;;;;;;;0.40;0.20;;;28.20;66.30;;;;;;5093893;28;20386;-72
2022/08/22 11:51:39;;;;;;;0.40;0.20;;;28.60;60.90;;;;;;5093905;28;20785;-73
2022/08/22 11:54:36;;;;;;;0.40;0.20;;;29.30;62.90;;;;;;5093485;28;20377;-73
2022/08/22 11:57:07;;;;;;;0.40;0.20;;;29.30;58.80;;;;;;5093091;28;20421;-72
2022/08/22 11:59:56;;;;;;;0.40;0.20;;;29.50;58.40;;;;;;5093847;28;20740;-72
2022/08/22 12:02:43;;;;;;;0.40;0.20;;;29.10;58.30;;;;;;5093630;28;20430;-72
2022/08/22 12:05:20;;;;;;;0.40;0.20;;;29.10;58.20;;;;;;5093568;28;20456;-72
2022/08/22 12:08:08;;;;;;;0.40;0.30;;;29.00;58.10;;;;;;5093599;28;20408;-72
2022/08/22 12:10:46;;;;;;;0.40;0.30;;;29.70;58.50;;;;;;5093415;28;20481;-74
2022/08/22 12:13:48;;;;;;;0.40;0.30;;;30.00;57.90;;;;;;5092889;28;20448;-73
2022/08/22 12:16:33;;;;;;;0.40;0.20;;;29.30;59.30;;;;;;5093381;28;20396;-73
2022/08/22 12:19:17;;;;;;;0.40;0.30;;;29.50;57.90;;;;;;5093257;28;20382;-73
2022/08/22 12:21:55;;;;;;;0.40;0.20;;;29.50;56.50;;;;;;5092689;28;20385;-74
2022/08/22 12:24:41;;;;;;;0.40;0.22;;;29.00;59.20;;;;;;5092992;28;20389;-73
2022/08/22 12:27:29;;;;;;;0.40;0.20;;;29.30;60.00;;;;;;5093125;28;20385;-73
2022/08/22 12:30:01;;;;;;;0.40;0.20;;;29.80;56.90;;;;;;5093108;28;20431;-73
2022/08/22 12:32:48;;;;;;;1.90;0.90;;;29.80;56.70;;;;;;5092741;28;20689;-74
2022/08/22 12:35:35;;;;;;;0.40;0.20;;;29.50;56.90;;;;;;5092997;28;20855;-72
2022/08/22 12:38:24;;;;;;;0.40;0.20;;;29.80;55.70;;;;;;5092958;28;20979;-72
2022/08/22 12:41:02;;;;;;;0.40;0.20;;;29.60;56.20;;;;;;5078340;28;20444;-72
2022/08/22 12:43:35;;;;;;;0.40;0.20;;;30.00;56.10;;;;;;5092568;28;20376;-73
2022/08/22 12:46:12;;;;;;;0.50;0.40;;;29.90;56.40;;;;;;5092952;28;20374;-73
2022/08/22 12:49:10;;;;;;;0.40;0.20;;;29.40;55.10;;;;;;5092060;28;20371;-73
2022/08/22 12:52:09;;;;;;;0.40;0.20;;;29.50;55.10;;;;;;5092608;28;20397;-72
2022/08/22 12:55:08;;;;;;;0.40;0.20;;;29.70;56.40;;;;;;5092296;28;20382;-72
2022/08/22 12:57:54;;;;;;;0.40;0.22;;;29.20;56.70;;;;;;5092509;28;20373;-73
2022/08/22 13:00:33;;;;;;;0.40;0.20;;;29.80;56.80;;;;;;5092370;28;20366;-72
2022/08/22 13:03:03;;;;;;;0.40;0.20;;;30.40;54.50;;;;;;5092403;28;20366;-72
2022/08/22 13:05:30;;;;;;;0.40;0.30;;;30.40;54.40;;;;;;5092390;28;20374;-72
2022/08/22 13:08:00;;;;;;;0.60;0.60;;;29.40;54.80;;;;;;5092277;28;20414;-72
2022/08/22 13:10:50;;;;;;;0.40;0.20;;;29.60;55.90;;;;;;5092089;28;20386;-73
2022/08/22 13:13:35;;;;;;;0.40;0.20;;;29.60;54.00;;;;;;5091725;28;20405;-72
2022/08/22 13:16:11;;;;;;;0.40;0.20;;;29.70;53.60;;;;;;5092349;28;20378;-74
2022/08/22 13:18:45;;;;;;;0.50;0.45;;;29.80;52.70;;;;;;5092078;28;20366;-72
2022/08/22 13:21:16;;;;;;;0.40;0.20;;;29.70;52.90;;;;;;5091530;28;20389;-73
2022/08/22 13:23:51;;;;;;;0.40;0.30;;;29.50;54.20;;;;;;5091931;28;20405;-72
2022/08/22 13:26:20;;;;;;;0.40;0.20;;;30.20;53.80;;;;;;5092114;28;20374;-72
2022/08/22 13:29:01;;;;;;;0.40;0.30;;;30.10;51.60;;;;;;5091975;28;20382;-73
2022/08/22 13:31:34;;;;;;;0.47;0.43;;;30.30;52.80;;;;;;5090661;28;20401;-74
2022/08/22 13:34:04;;;;;;;0.40;0.20;;;29.70;54.20;;;;;;5092214;28;20373;-73
2022/08/22 13:36:38;;;;;;;0.40;0.20;;;29.60;55.60;;;;;;5092050;28;20382;-72
2022/08/22 13:39:13;;;;;;;0.40;0.30;;;29.20;53.70;;;;;;5091936;28;20391;-73
2022/08/22 13:41:52;;;;;;;0.40;0.20;;;29.20;54.40;;;;;;5092271;28;20378;-73
2022/08/22 13:44:23;;;;;;;0.40;0.20;;;28.70;54.80;;;;;;5091633;28;20786;-74
2022/08/22 13:46:50;;;;;;;0.40;0.40;;;28.70;56.00;;;;;;5092159;28;20389;-74
2022/08/22 13:49:37;;;;;;;0.40;0.20;;;28.80;57.10;;;;;;5092117;28;20385;-73
2022/08/22 13:52:21;;;;;;;0.40;0.20;;;29.30;55.70;;;;;;5091809;28;20394;-73
2022/08/22 13:54:56;;;;;;;0.40;0.20;;;29.60;56.10;;;;;;5091815;28;20377;-74
2022/08/22 13:57:51;;;;;;;0.40;0.20;;;29.40;53.80;;;;;;5091711;28;20377;-72
2022/08/22 14:00:17;;;;;;;0.40;0.20;;;29.50;53.80;;;;;;5089910;28;20388;-72
2022/08/22 14:03:13;;;;;;;0.40;0.30;;;29.30;54.00;;;;;;5091056;28;20954;-73
2022/08/22 14:05:47;;;;;;;0.40;0.20;;;29.10;53.70;;;;;;5091389;28;20382;-73
2022/08/22 14:08:27;;;;;;;0.40;0.20;;;29.20;53.40;;;;;;5091415;28;20938;-73